AXB241 VTBS-VAPO
Flight info
| Callsign | AXB241 |
|---|---|
| Flight time | 3h 35m |
| Altitude | 38000 |
| Route | PASTO1G PASTO L301 VVZ W29 HIA W28 PPN |
| Aircraft | A20N/M-SDE2E3FGHIRWXY/LB1 |
Departure
| Time | 2026-05-07 09:29 |
|---|---|
| Airport | Suvarnabhumi Airport (VTBS) |
Arrival
| Time | 2026-05-07 13:05 |
|---|---|
| Airport | Pune International Airport (VAPO) |
| Time | Latitude | Longitude | Altitude | Speed | Heading |
|---|---|---|---|---|---|
| 2026-05-07 08:56 | 13.70296 | 100.74698 | 13 ft | 0 kts | 104° |
| 2026-05-07 09:21 | 13.70298 | 100.74692 | 13 ft | 1 kts | 104° |
| 2026-05-07 09:21 | 13.70303 | 100.74670 | 16 ft | 4 kts | 104° |
| 2026-05-07 09:21 | 13.70309 | 100.74645 | 15 ft | 4 kts | 115° |
| 2026-05-07 09:22 | 13.70326 | 100.74627 | 15 ft | 4 kts | 160° |
| 2026-05-07 09:22 | 13.70349 | 100.74617 | 15 ft | 4 kts | 157° |
| 2026-05-07 09:22 | 13.70372 | 100.74610 | 13 ft | 4 kts | 175° |
| 2026-05-07 09:22 | 13.70384 | 100.74609 | 13 ft | 0 kts | 178° |
| 2026-05-07 09:25 | 13.70379 | 100.74609 | 13 ft | 3 kts | 179° |
| 2026-05-07 09:25 | 13.70348 | 100.74604 | 13 ft | 6 kts | 197° |
| 2026-05-07 09:26 | 13.70314 | 100.74570 | 13 ft | 8 kts | 240° |
| 2026-05-07 09:26 | 13.70318 | 100.74508 | 13 ft | 10 kts | 287° |
| 2026-05-07 09:26 | 13.70337 | 100.74437 | 13 ft | 0 kts | 283° |
| 2026-05-07 09:27 | 13.70346 | 100.74374 | 14 ft | 13 kts | 267° |
| 2026-05-07 09:28 | 13.70281 | 100.74296 | 14 ft | 9 kts | 186° |
| 2026-05-07 09:28 | 13.70265 | 100.74293 | 14 ft | 0 kts | 192° |
| 2026-05-07 09:28 | 13.70154 | 100.74269 | 14 ft | 48 kts | 193° |
| 2026-05-07 09:28 | 13.69614 | 100.74127 | 10 ft | 109 kts | 195° |
| 2026-05-07 09:29 | 13.68718 | 100.73886 | 15 ft | 154 kts | 192° |
| 2026-05-07 09:29 | 13.67614 | 100.73607 | 355 ft | 164 kts | 192° |
| 2026-05-07 09:29 | 13.66502 | 100.73302 | 983 ft | 167 kts | 194° |
| 2026-05-07 09:29 | 13.65385 | 100.72927 | 1630 ft | 169 kts | 198° |
| 2026-05-07 09:30 | 13.64220 | 100.72547 | 2068 ft | 184 kts | 194° |
| 2026-05-07 09:30 | 13.62914 | 100.72213 | 2349 ft | 205 kts | 192° |
| 2026-05-07 09:30 | 13.61497 | 100.71665 | 2547 ft | 232 kts | 215° |
| 2026-05-07 09:30 | 13.60421 | 100.70368 | 2921 ft | 257 kts | 244° |
| 2026-05-07 09:31 | 13.60029 | 100.68516 | 3458 ft | 274 kts | 272° |
| 2026-05-07 09:31 | 13.60527 | 100.66633 | 4289 ft | 278 kts | 298° |
| 2026-05-07 09:31 | 13.61550 | 100.64930 | 5109 ft | 282 kts | 304° |
| 2026-05-07 09:31 | 13.62605 | 100.63206 | 5954 ft | 286 kts | 300° |
| 2026-05-07 09:32 | 13.63516 | 100.61373 | 6752 ft | 290 kts | 294° |
| 2026-05-07 09:32 | 13.64284 | 100.59464 | 7533 ft | 294 kts | 290° |
| 2026-05-07 09:32 | 13.64984 | 100.57469 | 8315 ft | 298 kts | 289° |
| 2026-05-07 09:32 | 13.65649 | 100.55435 | 9086 ft | 302 kts | 288° |
| 2026-05-07 09:33 | 13.66309 | 100.53374 | 9858 ft | 305 kts | 288° |
| 2026-05-07 09:33 | 13.66984 | 100.51268 | 10363 ft | 319 kts | 288° |
| 2026-05-07 09:33 | 13.67707 | 100.49027 | 10565 ft | 341 kts | 288° |
| 2026-05-07 09:33 | 13.68482 | 100.46654 | 10871 ft | 357 kts | 288° |
| 2026-05-07 09:34 | 13.69280 | 100.44223 | 11525 ft | 361 kts | 288° |
| 2026-05-07 09:34 | 13.70095 | 100.41748 | 12193 ft | 365 kts | 288° |
| 2026-05-07 09:34 | 13.70914 | 100.39261 | 12865 ft | 369 kts | 288° |
| 2026-05-07 09:34 | 13.71741 | 100.36744 | 13524 ft | 373 kts | 288° |
| 2026-05-07 09:35 | 13.72577 | 100.34204 | 14112 ft | 377 kts | 288° |
| 2026-05-07 09:35 | 13.73422 | 100.31640 | 14712 ft | 380 kts | 288° |
| 2026-05-07 09:35 | 13.74263 | 100.29087 | 15283 ft | 383 kts | 288° |
| 2026-05-07 09:35 | 13.75123 | 100.26478 | 15851 ft | 386 kts | 288° |
| 2026-05-07 09:36 | 13.75991 | 100.23842 | 16405 ft | 390 kts | 288° |
| 2026-05-07 09:36 | 13.76865 | 100.21186 | 16967 ft | 393 kts | 288° |
| 2026-05-07 09:36 | 13.77745 | 100.18509 | 17492 ft | 396 kts | 288° |
| 2026-05-07 09:36 | 13.78633 | 100.15810 | 18020 ft | 400 kts | 288° |
| 2026-05-07 09:37 | 13.79529 | 100.13089 | 18486 ft | 403 kts | 288° |
| 2026-05-07 09:37 | 13.80431 | 100.10350 | 18940 ft | 406 kts | 288° |
| 2026-05-07 09:37 | 13.81338 | 100.07588 | 19381 ft | 409 kts | 288° |
| 2026-05-07 09:37 | 13.82253 | 100.04807 | 19824 ft | 412 kts | 288° |
| 2026-05-07 09:38 | 13.83177 | 100.01994 | 20276 ft | 415 kts | 288° |
| 2026-05-07 09:38 | 13.84100 | 99.99182 | 20700 ft | 418 kts | 288° |
| 2026-05-07 09:38 | 13.85036 | 99.96329 | 21129 ft | 421 kts | 288° |
| 2026-05-07 09:38 | 13.85978 | 99.93460 | 21548 ft | 424 kts | 288° |
| 2026-05-07 09:39 | 13.86923 | 99.90579 | 21966 ft | 427 kts | 288° |
| 2026-05-07 09:39 | 13.87861 | 99.87721 | 22374 ft | 429 kts | 288° |
| 2026-05-07 09:39 | 13.88825 | 99.84782 | 22777 ft | 432 kts | 288° |
| 2026-05-07 09:39 | 13.89773 | 99.81880 | 23172 ft | 435 kts | 287° |
| 2026-05-07 09:40 | 13.90740 | 99.78920 | 23527 ft | 438 kts | 288° |
| 2026-05-07 09:40 | 13.91714 | 99.75946 | 23884 ft | 439 kts | 288° |
| 2026-05-07 09:40 | 13.92691 | 99.72961 | 24227 ft | 441 kts | 288° |
| 2026-05-07 09:40 | 13.93678 | 99.69944 | 24564 ft | 443 kts | 288° |
| 2026-05-07 09:41 | 13.94664 | 99.66926 | 24885 ft | 445 kts | 288° |
| 2026-05-07 09:41 | 13.95653 | 99.63901 | 25212 ft | 447 kts | 288° |
| 2026-05-07 09:41 | 13.96648 | 99.60855 | 25541 ft | 449 kts | 288° |
| 2026-05-07 09:41 | 13.97646 | 99.57801 | 25857 ft | 451 kts | 288° |
| 2026-05-07 09:42 | 13.98648 | 99.54733 | 26160 ft | 453 kts | 288° |
| 2026-05-07 09:42 | 13.99605 | 99.51683 | 26475 ft | 454 kts | 284° |
| 2026-05-07 09:42 | 14.00279 | 99.48493 | 26757 ft | 457 kts | 277° |
| 2026-05-07 09:42 | 14.00618 | 99.45229 | 27018 ft | 460 kts | 274° |
| 2026-05-07 09:43 | 14.00873 | 99.41934 | 27308 ft | 461 kts | 273° |
| 2026-05-07 09:43 | 14.01136 | 99.38633 | 27596 ft | 463 kts | 274° |
| 2026-05-07 09:43 | 14.01419 | 99.35345 | 27875 ft | 465 kts | 274° |
| 2026-05-07 09:43 | 14.01726 | 99.32001 | 28142 ft | 467 kts | 275° |
| 2026-05-07 09:44 | 14.02045 | 99.28668 | 28398 ft | 469 kts | 275° |
| 2026-05-07 09:44 | 14.02374 | 99.25316 | 28670 ft | 470 kts | 275° |
| 2026-05-07 09:44 | 14.02700 | 99.21998 | 28925 ft | 472 kts | 275° |
| 2026-05-07 09:44 | 14.03032 | 99.18624 | 29177 ft | 474 kts | 275° |
| 2026-05-07 09:45 | 14.03364 | 99.15243 | 29425 ft | 476 kts | 275° |
| 2026-05-07 09:45 | 14.03694 | 99.11853 | 29666 ft | 478 kts | 275° |
| 2026-05-07 09:45 | 14.04024 | 99.08440 | 29923 ft | 479 kts | 276° |
| 2026-05-07 09:45 | 14.04354 | 99.05009 | 30147 ft | 481 kts | 275° |
| 2026-05-07 09:46 | 14.04684 | 99.01571 | 30380 ft | 482 kts | 275° |
| 2026-05-07 09:46 | 14.05013 | 98.98139 | 30617 ft | 484 kts | 275° |
| 2026-05-07 09:46 | 14.05328 | 98.94681 | 30863 ft | 485 kts | 275° |
| 2026-05-07 09:46 | 14.05581 | 98.91216 | 31140 ft | 485 kts | 274° |
| 2026-05-07 09:47 | 14.05802 | 98.87747 | 31467 ft | 484 kts | 274° |
| 2026-05-07 09:47 | 14.06012 | 98.84340 | 31773 ft | 483 kts | 273° |
| 2026-05-07 09:47 | 14.06229 | 98.80835 | 32094 ft | 482 kts | 274° |
| 2026-05-07 09:47 | 14.06443 | 98.77438 | 32387 ft | 481 kts | 274° |
| 2026-05-07 09:48 | 14.06662 | 98.74002 | 32703 ft | 480 kts | 274° |
| 2026-05-07 09:48 | 14.06885 | 98.70559 | 32993 ft | 479 kts | 274° |
| 2026-05-07 09:48 | 14.07031 | 98.68290 | 33174 ft | 479 kts | 274° |
| 2026-05-07 09:48 | 14.07325 | 98.63748 | 33556 ft | 478 kts | 274° |
| 2026-05-07 09:49 | 14.07544 | 98.60339 | 33823 ft | 477 kts | 274° |
| 2026-05-07 09:49 | 14.07762 | 98.56940 | 34056 ft | 476 kts | 274° |
| 2026-05-07 09:49 | 14.07908 | 98.54665 | 34216 ft | 475 kts | 274° |
| 2026-05-07 09:49 | 14.08196 | 98.50130 | 34517 ft | 474 kts | 274° |
| 2026-05-07 09:50 | 14.08411 | 98.46745 | 34734 ft | 473 kts | 274° |
| 2026-05-07 09:50 | 14.08626 | 98.43364 | 34941 ft | 473 kts | 274° |
| 2026-05-07 09:50 | 14.08767 | 98.41125 | 35077 ft | 472 kts | 274° |
| 2026-05-07 09:50 | 14.09050 | 98.36647 | 35361 ft | 471 kts | 274° |
| 2026-05-07 09:51 | 14.09194 | 98.34367 | 35502 ft | 471 kts | 274° |
| 2026-05-07 09:51 | 14.09403 | 98.31039 | 35723 ft | 470 kts | 274° |
| 2026-05-07 09:51 | 14.09615 | 98.27674 | 35809 ft | 470 kts | 274° |
| 2026-05-07 09:52 | 14.10107 | 98.20991 | 35809 ft | 468 kts | 278° |
| 2026-05-07 09:52 | 14.11513 | 98.14428 | 35806 ft | 468 kts | 285° |
| 2026-05-07 09:53 | 14.13211 | 98.07941 | 35805 ft | 468 kts | 285° |
| 2026-05-07 09:53 | 14.14867 | 98.01493 | 35801 ft | 468 kts | 285° |
| 2026-05-07 09:54 | 14.16504 | 97.94998 | 35801 ft | 468 kts | 285° |
| 2026-05-07 09:54 | 14.18130 | 97.88502 | 35798 ft | 467 kts | 285° |
| 2026-05-07 09:55 | 14.19755 | 97.81995 | 35798 ft | 467 kts | 285° |
| 2026-05-07 09:55 | 14.21363 | 97.75545 | 35797 ft | 466 kts | 285° |
| 2026-05-07 09:56 | 14.22980 | 97.69054 | 35799 ft | 466 kts | 285° |
| 2026-05-07 09:56 | 14.24588 | 97.62592 | 35798 ft | 466 kts | 285° |
| 2026-05-07 09:57 | 14.26197 | 97.56117 | 35798 ft | 466 kts | 285° |
| 2026-05-07 09:57 | 14.27802 | 97.49653 | 35801 ft | 465 kts | 285° |
| 2026-05-07 09:58 | 14.29408 | 97.43179 | 35803 ft | 465 kts | 285° |
| 2026-05-07 09:58 | 14.31010 | 97.36711 | 35801 ft | 465 kts | 285° |
| 2026-05-07 09:59 | 14.32599 | 97.30291 | 35802 ft | 465 kts | 285° |
| 2026-05-07 09:59 | 14.34195 | 97.23833 | 35800 ft | 465 kts | 284° |
| 2026-05-07 10:00 | 14.35793 | 97.17359 | 35802 ft | 465 kts | 284° |
| 2026-05-07 10:00 | 14.37382 | 97.10914 | 35803 ft | 465 kts | 284° |
| 2026-05-07 10:01 | 14.38974 | 97.04438 | 35801 ft | 465 kts | 284° |
| 2026-05-07 10:01 | 14.40563 | 96.97967 | 35799 ft | 465 kts | 284° |
| 2026-05-07 10:02 | 14.42141 | 96.91542 | 35798 ft | 465 kts | 284° |
| 2026-05-07 10:02 | 14.43729 | 96.85069 | 35797 ft | 465 kts | 284° |
| 2026-05-07 10:03 | 14.45314 | 96.78600 | 35801 ft | 465 kts | 284° |
| 2026-05-07 10:03 | 14.46900 | 96.72122 | 35805 ft | 465 kts | 284° |
| 2026-05-07 10:04 | 14.48481 | 96.65650 | 35800 ft | 464 kts | 284° |
| 2026-05-07 10:04 | 14.50050 | 96.59218 | 35802 ft | 464 kts | 284° |
| 2026-05-07 10:05 | 14.51621 | 96.52764 | 35800 ft | 463 kts | 284° |
| 2026-05-07 10:05 | 14.53191 | 96.46310 | 35804 ft | 463 kts | 284° |
| 2026-05-07 10:06 | 14.54757 | 96.39861 | 35804 ft | 463 kts | 284° |
| 2026-05-07 10:06 | 14.56320 | 96.33419 | 35804 ft | 462 kts | 284° |
| 2026-05-07 10:07 | 14.57881 | 96.26972 | 35803 ft | 462 kts | 284° |
| 2026-05-07 10:07 | 14.59438 | 96.20540 | 35807 ft | 461 kts | 284° |
| 2026-05-07 10:08 | 14.60981 | 96.14156 | 35805 ft | 461 kts | 283° |
| 2026-05-07 10:08 | 14.62530 | 96.07736 | 35803 ft | 460 kts | 283° |
| 2026-05-07 10:09 | 14.64080 | 96.01308 | 35803 ft | 460 kts | 283° |
| 2026-05-07 10:09 | 14.65621 | 95.94900 | 35805 ft | 459 kts | 283° |
| 2026-05-07 10:10 | 14.67159 | 95.88502 | 35804 ft | 459 kts | 283° |
| 2026-05-07 10:10 | 14.68694 | 95.82112 | 35804 ft | 459 kts | 283° |
| 2026-05-07 10:11 | 14.70230 | 95.75707 | 35804 ft | 459 kts | 283° |
| 2026-05-07 10:11 | 14.71762 | 95.69316 | 35807 ft | 458 kts | 283° |
| 2026-05-07 10:12 | 14.73289 | 95.62936 | 35808 ft | 458 kts | 283° |
| 2026-05-07 10:12 | 14.74807 | 95.56587 | 35805 ft | 457 kts | 283° |
| 2026-05-07 10:13 | 14.76331 | 95.50204 | 35807 ft | 457 kts | 283° |
| 2026-05-07 10:13 | 14.77856 | 95.43806 | 35804 ft | 457 kts | 283° |
| 2026-05-07 10:14 | 14.79375 | 95.37426 | 35807 ft | 457 kts | 283° |
| 2026-05-07 10:14 | 14.80897 | 95.31093 | 35805 ft | 457 kts | 284° |
| 2026-05-07 10:15 | 14.82456 | 95.24666 | 35805 ft | 465 kts | 284° |
| 2026-05-07 10:15 | 14.84048 | 95.18094 | 35804 ft | 474 kts | 284° |
| 2026-05-07 10:16 | 14.85647 | 95.11472 | 35803 ft | 474 kts | 284° |
| 2026-05-07 10:16 | 14.87231 | 95.04900 | 35807 ft | 473 kts | 284° |
| 2026-05-07 10:17 | 14.88826 | 94.98270 | 35807 ft | 473 kts | 284° |
| 2026-05-07 10:17 | 14.90404 | 94.91702 | 35804 ft | 473 kts | 284° |
| 2026-05-07 10:18 | 14.91991 | 94.85090 | 35807 ft | 473 kts | 283° |
| 2026-05-07 10:18 | 14.93573 | 94.78493 | 35807 ft | 473 kts | 283° |
| 2026-05-07 10:19 | 14.95156 | 94.71878 | 35806 ft | 472 kts | 283° |
| 2026-05-07 10:19 | 14.96730 | 94.65295 | 35808 ft | 472 kts | 283° |
| 2026-05-07 10:20 | 14.98293 | 94.58745 | 35808 ft | 472 kts | 283° |
| 2026-05-07 10:20 | 14.99868 | 94.52140 | 35808 ft | 472 kts | 283° |
| 2026-05-07 10:21 | 15.01437 | 94.45554 | 35805 ft | 471 kts | 283° |
| 2026-05-07 10:21 | 15.03001 | 94.38977 | 35807 ft | 471 kts | 283° |
| 2026-05-07 10:22 | 15.04558 | 94.32420 | 35808 ft | 471 kts | 283° |
| 2026-05-07 10:22 | 15.06129 | 94.25808 | 35809 ft | 471 kts | 283° |
| 2026-05-07 10:23 | 15.07685 | 94.19230 | 35808 ft | 471 kts | 283° |
| 2026-05-07 10:23 | 15.09237 | 94.12651 | 35797 ft | 471 kts | 283° |
| 2026-05-07 10:24 | 15.10790 | 94.06070 | 35810 ft | 470 kts | 283° |
| 2026-05-07 10:24 | 15.12332 | 93.99529 | 35812 ft | 470 kts | 283° |
| 2026-05-07 10:25 | 15.13891 | 93.92908 | 35809 ft | 470 kts | 283° |
| 2026-05-07 10:25 | 15.15426 | 93.86379 | 35799 ft | 470 kts | 283° |
| 2026-05-07 10:26 | 15.16970 | 93.79803 | 35799 ft | 470 kts | 282° |
| 2026-05-07 10:26 | 15.18523 | 93.73191 | 35808 ft | 474 kts | 282° |
| 2026-05-07 10:27 | 15.20074 | 93.66569 | 35811 ft | 473 kts | 282° |
| 2026-05-07 10:27 | 15.21705 | 93.59958 | 35809 ft | 473 kts | 284° |
| 2026-05-07 10:28 | 15.23460 | 93.53399 | 35808 ft | 473 kts | 284° |
| 2026-05-07 10:28 | 15.25219 | 93.46827 | 35813 ft | 473 kts | 284° |
| 2026-05-07 10:29 | 15.26952 | 93.40290 | 35811 ft | 473 kts | 284° |
| 2026-05-07 10:29 | 15.28685 | 93.33719 | 35809 ft | 473 kts | 284° |
| 2026-05-07 10:30 | 15.31274 | 93.23877 | 35813 ft | 472 kts | 284° |
| 2026-05-07 10:30 | 15.33000 | 93.17301 | 35809 ft | 472 kts | 284° |
| 2026-05-07 10:31 | 15.34713 | 93.10770 | 35808 ft | 472 kts | 284° |
| 2026-05-07 10:31 | 15.36156 | 93.05257 | 35809 ft | 472 kts | 284° |
| 2026-05-07 10:32 | 15.37874 | 92.98684 | 35811 ft | 472 kts | 284° |
| 2026-05-07 10:32 | 15.39574 | 92.92169 | 35817 ft | 472 kts | 284° |
| 2026-05-07 10:33 | 15.41288 | 92.85592 | 35813 ft | 472 kts | 283° |
| 2026-05-07 10:33 | 15.43000 | 92.79012 | 35813 ft | 472 kts | 283° |
| 2026-05-07 10:34 | 15.44707 | 92.72443 | 35812 ft | 472 kts | 283° |
| 2026-05-07 10:34 | 15.46414 | 92.65865 | 35817 ft | 472 kts | 283° |
| 2026-05-07 10:35 | 15.48118 | 92.59293 | 35816 ft | 472 kts | 283° |
| 2026-05-07 10:35 | 15.49811 | 92.52751 | 35816 ft | 472 kts | 283° |
| 2026-05-07 10:36 | 15.51512 | 92.46173 | 35814 ft | 472 kts | 283° |
| 2026-05-07 10:36 | 15.53216 | 92.39576 | 35814 ft | 472 kts | 283° |
| 2026-05-07 10:37 | 15.54909 | 92.33013 | 35811 ft | 472 kts | 283° |
| 2026-05-07 10:37 | 15.56594 | 92.26466 | 35815 ft | 471 kts | 283° |
| 2026-05-07 10:38 | 15.58286 | 92.19888 | 35811 ft | 471 kts | 283° |
| 2026-05-07 10:38 | 15.59975 | 92.13307 | 35816 ft | 471 kts | 283° |
| 2026-05-07 10:39 | 15.61661 | 92.06732 | 35821 ft | 471 kts | 283° |
| 2026-05-07 10:39 | 15.63341 | 92.00167 | 35818 ft | 470 kts | 283° |
| 2026-05-07 10:40 | 15.65019 | 91.93604 | 35817 ft | 470 kts | 283° |
| 2026-05-07 10:40 | 15.66685 | 91.87083 | 35818 ft | 470 kts | 283° |
| 2026-05-07 10:41 | 15.68361 | 91.80509 | 35820 ft | 470 kts | 283° |
| 2026-05-07 10:41 | 15.70032 | 91.73947 | 35820 ft | 470 kts | 283° |
| 2026-05-07 10:42 | 15.71687 | 91.67445 | 35821 ft | 469 kts | 282° |
| 2026-05-07 10:42 | 15.73348 | 91.60904 | 35823 ft | 469 kts | 282° |
| 2026-05-07 10:43 | 15.75016 | 91.54327 | 35819 ft | 469 kts | 282° |
| 2026-05-07 10:43 | 15.76673 | 91.47784 | 35821 ft | 469 kts | 282° |
| 2026-05-07 10:44 | 15.78333 | 91.41221 | 35823 ft | 469 kts | 282° |
| 2026-05-07 10:44 | 15.79980 | 91.34701 | 35823 ft | 469 kts | 282° |
| 2026-05-07 10:45 | 15.81636 | 91.28138 | 35822 ft | 469 kts | 282° |
| 2026-05-07 10:45 | 15.83290 | 91.21573 | 35822 ft | 469 kts | 282° |
| 2026-05-07 10:46 | 15.84940 | 91.15014 | 35824 ft | 469 kts | 282° |
| 2026-05-07 10:46 | 15.86588 | 91.08455 | 35826 ft | 469 kts | 282° |
| 2026-05-07 10:47 | 15.88236 | 91.01885 | 35825 ft | 469 kts | 282° |
| 2026-05-07 10:47 | 15.89871 | 90.95356 | 35827 ft | 469 kts | 282° |
| 2026-05-07 10:48 | 15.91516 | 90.88777 | 35825 ft | 469 kts | 282° |
| 2026-05-07 10:48 | 15.93160 | 90.82200 | 35825 ft | 469 kts | 282° |
| 2026-05-07 10:49 | 15.94799 | 90.75632 | 35826 ft | 469 kts | 282° |
| 2026-05-07 10:49 | 15.96434 | 90.69074 | 35828 ft | 469 kts | 282° |
| 2026-05-07 10:50 | 15.98071 | 90.62493 | 35827 ft | 469 kts | 282° |
| 2026-05-07 10:50 | 15.99703 | 90.55925 | 35829 ft | 469 kts | 282° |
| 2026-05-07 10:51 | 16.01332 | 90.49359 | 35825 ft | 469 kts | 282° |
| 2026-05-07 10:51 | 16.02950 | 90.42828 | 35829 ft | 469 kts | 282° |
| 2026-05-07 10:52 | 16.04573 | 90.36269 | 35830 ft | 469 kts | 282° |
| 2026-05-07 10:52 | 16.06196 | 90.29703 | 35828 ft | 468 kts | 282° |
| 2026-05-07 10:53 | 16.07816 | 90.23138 | 35823 ft | 469 kts | 282° |
| 2026-05-07 10:53 | 16.09436 | 90.16565 | 35831 ft | 468 kts | 282° |
| 2026-05-07 10:54 | 16.11051 | 90.10005 | 35833 ft | 468 kts | 282° |
| 2026-05-07 10:54 | 16.12665 | 90.03439 | 35829 ft | 468 kts | 282° |
| 2026-05-07 10:55 | 16.14275 | 89.96880 | 35827 ft | 468 kts | 282° |
| 2026-05-07 10:55 | 16.15873 | 89.90357 | 35832 ft | 468 kts | 282° |
| 2026-05-07 10:56 | 16.17479 | 89.83794 | 35833 ft | 467 kts | 282° |
| 2026-05-07 10:56 | 16.19081 | 89.77244 | 35824 ft | 468 kts | 282° |
| 2026-05-07 10:57 | 16.20682 | 89.70681 | 35828 ft | 467 kts | 281° |
| 2026-05-07 10:57 | 16.22280 | 89.64120 | 35831 ft | 467 kts | 281° |
| 2026-05-07 10:58 | 16.23865 | 89.57604 | 35836 ft | 467 kts | 281° |
| 2026-05-07 10:58 | 16.25459 | 89.51045 | 35831 ft | 467 kts | 281° |
| 2026-05-07 10:59 | 16.27054 | 89.44471 | 35837 ft | 467 kts | 281° |
| 2026-05-07 10:59 | 16.28644 | 89.37914 | 35839 ft | 467 kts | 281° |
| 2026-05-07 11:00 | 16.30223 | 89.31390 | 35837 ft | 467 kts | 281° |
| 2026-05-07 11:00 | 16.31811 | 89.24821 | 35836 ft | 467 kts | 281° |
| 2026-05-07 11:01 | 16.33398 | 89.18246 | 35834 ft | 467 kts | 281° |
| 2026-05-07 11:01 | 16.34981 | 89.11678 | 35840 ft | 467 kts | 281° |
| 2026-05-07 11:02 | 16.36552 | 89.05146 | 35839 ft | 467 kts | 281° |
| 2026-05-07 11:02 | 16.38139 | 88.98542 | 35831 ft | 467 kts | 281° |
| 2026-05-07 11:03 | 16.39703 | 88.92023 | 35842 ft | 467 kts | 281° |
| 2026-05-07 11:03 | 16.41278 | 88.85446 | 35831 ft | 467 kts | 281° |
| 2026-05-07 11:04 | 16.42849 | 88.78879 | 35829 ft | 467 kts | 281° |
| 2026-05-07 11:04 | 16.44418 | 88.72307 | 35835 ft | 467 kts | 281° |
| 2026-05-07 11:05 | 16.45974 | 88.65783 | 35833 ft | 467 kts | 281° |
| 2026-05-07 11:05 | 16.47542 | 88.59199 | 35833 ft | 467 kts | 281° |
| 2026-05-07 11:06 | 16.49108 | 88.52612 | 35842 ft | 468 kts | 281° |
| 2026-05-07 11:06 | 16.50672 | 88.46029 | 35840 ft | 468 kts | 281° |
| 2026-05-07 11:07 | 16.52234 | 88.39440 | 35832 ft | 468 kts | 281° |
| 2026-05-07 11:07 | 16.53785 | 88.32889 | 35839 ft | 468 kts | 281° |
| 2026-05-07 11:08 | 16.55356 | 88.26242 | 35840 ft | 468 kts | 281° |
| 2026-05-07 11:08 | 16.56912 | 88.19648 | 35832 ft | 468 kts | 281° |
| 2026-05-07 11:09 | 16.58457 | 88.13088 | 35835 ft | 469 kts | 281° |
| 2026-05-07 11:09 | 16.60011 | 88.06482 | 35832 ft | 469 kts | 281° |
| 2026-05-07 11:10 | 16.61563 | 87.99879 | 35835 ft | 469 kts | 281° |
| 2026-05-07 11:10 | 16.63117 | 87.93254 | 35837 ft | 469 kts | 281° |
| 2026-05-07 11:11 | 16.64667 | 87.86636 | 35839 ft | 469 kts | 281° |
| 2026-05-07 11:11 | 16.65953 | 87.81140 | 35835 ft | 469 kts | 281° |
| 2026-05-07 11:12 | 16.67501 | 87.74517 | 35839 ft | 469 kts | 280° |
| 2026-05-07 11:12 | 16.69291 | 87.66839 | 35841 ft | 469 kts | 280° |
| 2026-05-07 11:13 | 16.70835 | 87.60205 | 35835 ft | 469 kts | 280° |
| 2026-05-07 11:13 | 16.72115 | 87.54702 | 35840 ft | 469 kts | 280° |
| 2026-05-07 11:14 | 16.73652 | 87.48080 | 35840 ft | 469 kts | 280° |
| 2026-05-07 11:14 | 16.75187 | 87.41460 | 35838 ft | 469 kts | 280° |
| 2026-05-07 11:15 | 16.76721 | 87.34837 | 35836 ft | 469 kts | 280° |
| 2026-05-07 11:15 | 16.78250 | 87.28216 | 35836 ft | 469 kts | 280° |
| 2026-05-07 11:16 | 16.79777 | 87.21597 | 35831 ft | 469 kts | 280° |
| 2026-05-07 11:16 | 16.81305 | 87.14976 | 35834 ft | 469 kts | 280° |
| 2026-05-07 11:17 | 16.82814 | 87.08403 | 35826 ft | 469 kts | 280° |
| 2026-05-07 11:17 | 16.84331 | 87.01786 | 35833 ft | 468 kts | 280° |
| 2026-05-07 11:18 | 16.85847 | 86.95171 | 35837 ft | 468 kts | 280° |
| 2026-05-07 11:18 | 16.87361 | 86.88560 | 35833 ft | 468 kts | 280° |
| 2026-05-07 11:19 | 16.88879 | 86.81932 | 35829 ft | 468 kts | 280° |
| 2026-05-07 11:19 | 16.90378 | 86.75361 | 35831 ft | 467 kts | 280° |
| 2026-05-07 11:20 | 16.91880 | 86.68770 | 35832 ft | 467 kts | 280° |
| 2026-05-07 11:20 | 16.93381 | 86.62169 | 35825 ft | 467 kts | 280° |
| 2026-05-07 11:21 | 16.94883 | 86.55560 | 35827 ft | 466 kts | 280° |
| 2026-05-07 11:21 | 16.96378 | 86.48971 | 35825 ft | 466 kts | 280° |
| 2026-05-07 11:22 | 16.97863 | 86.42417 | 35826 ft | 466 kts | 280° |
| 2026-05-07 11:22 | 16.99353 | 86.35829 | 35828 ft | 466 kts | 280° |
| 2026-05-07 11:23 | 17.00841 | 86.29241 | 35829 ft | 466 kts | 280° |
| 2026-05-07 11:23 | 17.02328 | 86.22649 | 35826 ft | 466 kts | 280° |
| 2026-05-07 11:24 | 17.03811 | 86.16062 | 35824 ft | 465 kts | 279° |
| 2026-05-07 11:24 | 17.05294 | 86.09466 | 35824 ft | 466 kts | 279° |
| 2026-05-07 11:25 | 17.06774 | 86.02871 | 35820 ft | 465 kts | 279° |
| 2026-05-07 11:25 | 17.08241 | 85.96327 | 35820 ft | 465 kts | 279° |
| 2026-05-07 11:26 | 17.09715 | 85.89738 | 35828 ft | 465 kts | 279° |
| 2026-05-07 11:26 | 17.11189 | 85.83137 | 35825 ft | 465 kts | 279° |
| 2026-05-07 11:27 | 17.12658 | 85.76549 | 35825 ft | 465 kts | 279° |
| 2026-05-07 11:27 | 17.14126 | 85.69956 | 35827 ft | 465 kts | 279° |
| 2026-05-07 11:28 | 17.15590 | 85.63366 | 35820 ft | 465 kts | 279° |
| 2026-05-07 11:28 | 17.17045 | 85.56812 | 35827 ft | 465 kts | 279° |
| 2026-05-07 11:29 | 17.18504 | 85.50222 | 35821 ft | 465 kts | 279° |
| 2026-05-07 11:29 | 17.19961 | 85.43626 | 35823 ft | 465 kts | 279° |
| 2026-05-07 11:30 | 17.21417 | 85.37026 | 35817 ft | 465 kts | 279° |
| 2026-05-07 11:30 | 17.22870 | 85.30432 | 35819 ft | 465 kts | 279° |
| 2026-05-07 11:31 | 17.24318 | 85.23853 | 35819 ft | 465 kts | 279° |
| 2026-05-07 11:31 | 17.25758 | 85.17292 | 35819 ft | 464 kts | 279° |
| 2026-05-07 11:32 | 17.27919 | 85.07427 | 35818 ft | 464 kts | 279° |
| 2026-05-07 11:33 | 17.29360 | 85.00840 | 35815 ft | 464 kts | 279° |
| 2026-05-07 11:33 | 17.30799 | 84.94250 | 35812 ft | 464 kts | 279° |
| 2026-05-07 11:34 | 17.32235 | 84.87668 | 35815 ft | 464 kts | 279° |
| 2026-05-07 11:34 | 17.33668 | 84.81080 | 35816 ft | 463 kts | 279° |
| 2026-05-07 11:35 | 17.35097 | 84.74504 | 35812 ft | 463 kts | 279° |
| 2026-05-07 11:35 | 17.36516 | 84.67965 | 35813 ft | 463 kts | 279° |
| 2026-05-07 11:36 | 17.37940 | 84.61389 | 35808 ft | 463 kts | 279° |
| 2026-05-07 11:36 | 17.39362 | 84.54814 | 35807 ft | 463 kts | 279° |
| 2026-05-07 11:37 | 17.40781 | 84.48228 | 35805 ft | 463 kts | 279° |
| 2026-05-07 11:37 | 17.42186 | 84.41698 | 35806 ft | 463 kts | 279° |
| 2026-05-07 11:38 | 17.43603 | 84.35110 | 35804 ft | 463 kts | 279° |
| 2026-05-07 11:38 | 17.45017 | 84.28528 | 35804 ft | 463 kts | 279° |
| 2026-05-07 11:39 | 17.46430 | 84.21944 | 35802 ft | 463 kts | 279° |
| 2026-05-07 11:39 | 17.47839 | 84.15364 | 35802 ft | 463 kts | 279° |
| 2026-05-07 11:40 | 17.49246 | 84.08783 | 35800 ft | 463 kts | 279° |
| 2026-05-07 11:40 | 17.50646 | 84.02230 | 35801 ft | 463 kts | 279° |
| 2026-05-07 11:41 | 17.52046 | 83.95665 | 35801 ft | 462 kts | 279° |
| 2026-05-07 11:41 | 17.53442 | 83.89092 | 35800 ft | 463 kts | 279° |
| 2026-05-07 11:42 | 17.54848 | 83.82466 | 35794 ft | 462 kts | 279° |
| 2026-05-07 11:42 | 17.56246 | 83.75870 | 35799 ft | 462 kts | 279° |
| 2026-05-07 11:43 | 17.57631 | 83.69329 | 35797 ft | 462 kts | 279° |
| 2026-05-07 11:43 | 17.59012 | 83.62792 | 35798 ft | 462 kts | 279° |
| 2026-05-07 11:44 | 17.60386 | 83.56310 | 35796 ft | 462 kts | 279° |
| 2026-05-07 11:44 | 17.61776 | 83.49703 | 35790 ft | 462 kts | 279° |
| 2026-05-07 11:45 | 17.63149 | 83.43169 | 35787 ft | 462 kts | 279° |
| 2026-05-07 11:45 | 17.64537 | 83.36564 | 35777 ft | 462 kts | 279° |
| 2026-05-07 11:46 | 17.65900 | 83.29974 | 35775 ft | 461 kts | 277° |
| 2026-05-07 11:46 | 17.66452 | 83.23313 | 35772 ft | 458 kts | 266° |
| 2026-05-07 11:47 | 17.65792 | 83.16694 | 35774 ft | 456 kts | 258° |
| 2026-05-07 11:47 | 17.64815 | 83.10106 | 35778 ft | 456 kts | 259° |
| 2026-05-07 11:48 | 17.63909 | 83.03518 | 35782 ft | 456 kts | 260° |
| 2026-05-07 11:48 | 17.63046 | 82.96964 | 35787 ft | 457 kts | 260° |
| 2026-05-07 11:49 | 17.62182 | 82.90365 | 35795 ft | 457 kts | 260° |
| 2026-05-07 11:49 | 17.61310 | 82.83750 | 35801 ft | 457 kts | 260° |
| 2026-05-07 11:50 | 17.60436 | 82.77159 | 35802 ft | 457 kts | 260° |
| 2026-05-07 11:50 | 17.59554 | 82.70538 | 35804 ft | 457 kts | 260° |
| 2026-05-07 11:51 | 17.58676 | 82.63984 | 35806 ft | 457 kts | 260° |
| 2026-05-07 11:51 | 17.57787 | 82.57369 | 35806 ft | 457 kts | 260° |
| 2026-05-07 11:52 | 17.56898 | 82.50772 | 35809 ft | 458 kts | 260° |
| 2026-05-07 11:52 | 17.56004 | 82.44160 | 35816 ft | 458 kts | 260° |
| 2026-05-07 11:53 | 17.55114 | 82.37587 | 35812 ft | 458 kts | 261° |
| 2026-05-07 11:53 | 17.54210 | 82.30939 | 35814 ft | 458 kts | 261° |
| 2026-05-07 11:54 | 17.53315 | 82.24389 | 35815 ft | 458 kts | 261° |
| 2026-05-07 11:54 | 17.52410 | 82.17771 | 35813 ft | 458 kts | 261° |
| 2026-05-07 11:55 | 17.51524 | 82.11176 | 35817 ft | 457 kts | 261° |
| 2026-05-07 11:55 | 17.50797 | 82.05679 | 35811 ft | 457 kts | 261° |
| 2026-05-07 11:56 | 17.49774 | 81.97984 | 35814 ft | 457 kts | 261° |
| 2026-05-07 11:56 | 17.48895 | 81.91415 | 35811 ft | 458 kts | 261° |
| 2026-05-07 11:57 | 17.48158 | 81.85926 | 35813 ft | 458 kts | 261° |
| 2026-05-07 11:57 | 17.47269 | 81.79316 | 35810 ft | 458 kts | 261° |
| 2026-05-07 11:58 | 17.46382 | 81.72719 | 35808 ft | 457 kts | 261° |
| 2026-05-07 11:58 | 17.45489 | 81.66109 | 35804 ft | 458 kts | 261° |
| 2026-05-07 11:59 | 17.44592 | 81.59496 | 35797 ft | 457 kts | 261° |
| 2026-05-07 11:59 | 17.43700 | 81.52945 | 35795 ft | 458 kts | 261° |
| 2026-05-07 12:00 | 17.42800 | 81.46343 | 35797 ft | 457 kts | 261° |
| 2026-05-07 12:00 | 17.41907 | 81.39817 | 35796 ft | 458 kts | 261° |
| 2026-05-07 12:01 | 17.40997 | 81.33182 | 35797 ft | 457 kts | 261° |
| 2026-05-07 12:01 | 17.40092 | 81.26594 | 35794 ft | 457 kts | 261° |
| 2026-05-07 12:02 | 17.39184 | 81.20003 | 35789 ft | 457 kts | 261° |
| 2026-05-07 12:02 | 17.38273 | 81.13404 | 35798 ft | 457 kts | 261° |
| 2026-05-07 12:03 | 17.37361 | 81.06815 | 35794 ft | 457 kts | 261° |
| 2026-05-07 12:03 | 17.36452 | 81.00266 | 35795 ft | 457 kts | 261° |
| 2026-05-07 12:04 | 17.35536 | 80.93680 | 35790 ft | 457 kts | 261° |
| 2026-05-07 12:04 | 17.34619 | 80.87103 | 35791 ft | 457 kts | 261° |
| 2026-05-07 12:05 | 17.33693 | 80.80479 | 35788 ft | 457 kts | 261° |
| 2026-05-07 12:05 | 17.32777 | 80.73940 | 35792 ft | 456 kts | 261° |
| 2026-05-07 12:06 | 17.31854 | 80.67368 | 35790 ft | 457 kts | 261° |
| 2026-05-07 12:06 | 17.31235 | 80.62969 | 35792 ft | 457 kts | 261° |
| 2026-05-07 12:07 | 17.30000 | 80.54220 | 35785 ft | 457 kts | 261° |
| 2026-05-07 12:07 | 17.29068 | 80.47633 | 35789 ft | 457 kts | 261° |
| 2026-05-07 12:08 | 17.28135 | 80.41049 | 35786 ft | 457 kts | 261° |
| 2026-05-07 12:08 | 17.27200 | 80.34475 | 35786 ft | 457 kts | 261° |
| 2026-05-07 12:09 | 17.26264 | 80.27901 | 35789 ft | 457 kts | 261° |
| 2026-05-07 12:09 | 17.25325 | 80.21326 | 35786 ft | 457 kts | 261° |
| 2026-05-07 12:10 | 17.24405 | 80.14750 | 35782 ft | 457 kts | 263° |
| 2026-05-07 12:10 | 17.24175 | 80.08146 | 35785 ft | 457 kts | 269° |
| 2026-05-07 12:11 | 17.24198 | 80.01489 | 35790 ft | 457 kts | 270° |
| 2026-05-07 12:11 | 17.24201 | 79.94828 | 35787 ft | 457 kts | 269° |
| 2026-05-07 12:12 | 17.24179 | 79.88174 | 35789 ft | 457 kts | 269° |
| 2026-05-07 12:12 | 17.24148 | 79.81518 | 35789 ft | 457 kts | 269° |
| 2026-05-07 12:13 | 17.24114 | 79.74905 | 35794 ft | 457 kts | 269° |
| 2026-05-07 12:13 | 17.24078 | 79.68238 | 35796 ft | 457 kts | 269° |
| 2026-05-07 12:14 | 17.24040 | 79.61577 | 35797 ft | 458 kts | 269° |
| 2026-05-07 12:14 | 17.24000 | 79.54920 | 35796 ft | 458 kts | 269° |
| 2026-05-07 12:15 | 17.23958 | 79.48246 | 35799 ft | 458 kts | 269° |
| 2026-05-07 12:15 | 17.23914 | 79.41629 | 35801 ft | 458 kts | 269° |
| 2026-05-07 12:16 | 17.23867 | 79.34961 | 35804 ft | 458 kts | 269° |
| 2026-05-07 12:16 | 17.23818 | 79.28306 | 35811 ft | 458 kts | 269° |
| 2026-05-07 12:17 | 17.23767 | 79.21644 | 35816 ft | 458 kts | 269° |
| 2026-05-07 12:17 | 17.23714 | 79.14972 | 35819 ft | 458 kts | 269° |
| 2026-05-07 12:18 | 17.23659 | 79.08337 | 35819 ft | 458 kts | 269° |
| 2026-05-07 12:18 | 17.23601 | 79.01664 | 35829 ft | 458 kts | 269° |
| 2026-05-07 12:19 | 17.23541 | 78.94985 | 35835 ft | 458 kts | 269° |
| 2026-05-07 12:19 | 17.23479 | 78.88350 | 35843 ft | 458 kts | 269° |
| 2026-05-07 12:20 | 17.23415 | 78.81679 | 35848 ft | 458 kts | 269° |
| 2026-05-07 12:20 | 17.23348 | 78.75017 | 35862 ft | 458 kts | 269° |
| 2026-05-07 12:21 | 17.23279 | 78.68335 | 35873 ft | 459 kts | 269° |
| 2026-05-07 12:21 | 17.23207 | 78.61662 | 35879 ft | 459 kts | 269° |
| 2026-05-07 12:22 | 17.23133 | 78.54974 | 35882 ft | 459 kts | 269° |
| 2026-05-07 12:22 | 17.23057 | 78.48299 | 35884 ft | 459 kts | 269° |
| 2026-05-07 12:23 | 17.22979 | 78.41613 | 35885 ft | 459 kts | 269° |
| 2026-05-07 12:23 | 17.23232 | 78.34937 | 35883 ft | 460 kts | 273° |
| 2026-05-07 12:24 | 17.23624 | 78.28292 | 35886 ft | 460 kts | 273° |
| 2026-05-07 12:24 | 17.24012 | 78.21618 | 35888 ft | 460 kts | 273° |
| 2026-05-07 12:25 | 17.24387 | 78.14926 | 35886 ft | 460 kts | 273° |
| 2026-05-07 12:25 | 17.24756 | 78.08238 | 35889 ft | 460 kts | 273° |
| 2026-05-07 12:26 | 17.25121 | 78.01563 | 35893 ft | 460 kts | 273° |
| 2026-05-07 12:26 | 17.25485 | 77.94874 | 35888 ft | 460 kts | 273° |
| 2026-05-07 12:27 | 17.25844 | 77.88232 | 35887 ft | 460 kts | 273° |
| 2026-05-07 12:27 | 17.26204 | 77.81544 | 35886 ft | 460 kts | 273° |
| 2026-05-07 12:28 | 17.26560 | 77.74871 | 35884 ft | 460 kts | 273° |
| 2026-05-07 12:28 | 17.26913 | 77.68172 | 35882 ft | 460 kts | 273° |
| 2026-05-07 12:29 | 17.27265 | 77.61490 | 35877 ft | 460 kts | 273° |
| 2026-05-07 12:29 | 17.27616 | 77.54793 | 35873 ft | 460 kts | 273° |
| 2026-05-07 12:30 | 17.27963 | 77.48148 | 35874 ft | 460 kts | 273° |
| 2026-05-07 12:30 | 17.28309 | 77.41463 | 35873 ft | 460 kts | 273° |
| 2026-05-07 12:31 | 17.28653 | 77.34773 | 35869 ft | 460 kts | 273° |
| 2026-05-07 12:31 | 17.28993 | 77.28093 | 35864 ft | 460 kts | 273° |
| 2026-05-07 12:32 | 17.29332 | 77.21390 | 35861 ft | 460 kts | 273° |
| 2026-05-07 12:32 | 17.29669 | 77.14691 | 35859 ft | 460 kts | 273° |
| 2026-05-07 12:33 | 17.30167 | 77.04704 | 35851 ft | 460 kts | 273° |
| 2026-05-07 12:33 | 17.30498 | 76.98019 | 35847 ft | 460 kts | 273° |
| 2026-05-07 12:34 | 17.30827 | 76.91320 | 35840 ft | 461 kts | 273° |
| 2026-05-07 12:34 | 17.31190 | 76.84623 | 35839 ft | 461 kts | 276° |
| 2026-05-07 12:35 | 17.32500 | 76.78045 | 35838 ft | 462 kts | 288° |
| 2026-05-07 12:35 | 17.35068 | 76.71900 | 35837 ft | 463 kts | 296° |
| 2026-05-07 12:36 | 17.37910 | 76.65844 | 35842 ft | 463 kts | 295° |
| 2026-05-07 12:36 | 17.40701 | 76.59744 | 35839 ft | 463 kts | 295° |
| 2026-05-07 12:37 | 17.43426 | 76.53685 | 35838 ft | 463 kts | 295° |
| 2026-05-07 12:37 | 17.46165 | 76.47567 | 35845 ft | 463 kts | 295° |
| 2026-05-07 12:38 | 17.48440 | 76.42484 | 35846 ft | 462 kts | 294° |
| 2026-05-07 12:38 | 17.51170 | 76.36381 | 35847 ft | 462 kts | 294° |
| 2026-05-07 12:39 | 17.53898 | 76.30282 | 35846 ft | 462 kts | 294° |
| 2026-05-07 12:39 | 17.56625 | 76.24181 | 35833 ft | 461 kts | 294° |
| 2026-05-07 12:40 | 17.59327 | 76.18131 | 35824 ft | 461 kts | 294° |
| 2026-05-07 12:40 | 17.62049 | 76.12030 | 35812 ft | 461 kts | 294° |
| 2026-05-07 12:41 | 17.64766 | 76.05936 | 35806 ft | 461 kts | 294° |
| 2026-05-07 12:41 | 17.67478 | 75.99847 | 35802 ft | 461 kts | 294° |
| 2026-05-07 12:42 | 17.70161 | 75.93784 | 35802 ft | 461 kts | 294° |
| 2026-05-07 12:42 | 17.72850 | 75.87674 | 35803 ft | 461 kts | 294° |
| 2026-05-07 12:43 | 17.75537 | 75.81568 | 35845 ft | 460 kts | 294° |
| 2026-05-07 12:43 | 17.78209 | 75.75491 | 35833 ft | 461 kts | 294° |
| 2026-05-07 12:44 | 17.80896 | 75.69380 | 35824 ft | 458 kts | 294° |
| 2026-05-07 12:44 | 17.82213 | 75.66381 | 35808 ft | 445 kts | 294° |
| 2026-05-07 12:44 | 17.83485 | 75.63485 | 35469 ft | 439 kts | 294° |
| 2026-05-07 12:45 | 17.84767 | 75.60562 | 34633 ft | 444 kts | 294° |
| 2026-05-07 12:45 | 17.86065 | 75.57600 | 33776 ft | 449 kts | 294° |
| 2026-05-07 12:45 | 17.87376 | 75.54603 | 32938 ft | 451 kts | 294° |
| 2026-05-07 12:45 | 17.88682 | 75.51617 | 32156 ft | 451 kts | 294° |
| 2026-05-07 12:46 | 17.89992 | 75.48620 | 31404 ft | 450 kts | 294° |
| 2026-05-07 12:46 | 17.91300 | 75.45625 | 30644 ft | 451 kts | 295° |
| 2026-05-07 12:46 | 17.92605 | 75.42638 | 30188 ft | 446 kts | 295° |
| 2026-05-07 12:46 | 17.93882 | 75.39712 | 29569 ft | 445 kts | 295° |
| 2026-05-07 12:47 | 17.95161 | 75.36780 | 29040 ft | 439 kts | 295° |
| 2026-05-07 12:47 | 17.96422 | 75.33890 | 28471 ft | 433 kts | 295° |
| 2026-05-07 12:47 | 17.97667 | 75.31035 | 27931 ft | 427 kts | 295° |
| 2026-05-07 12:47 | 17.98899 | 75.28209 | 27368 ft | 422 kts | 295° |
| 2026-05-07 12:48 | 18.00116 | 75.25417 | 26827 ft | 417 kts | 295° |
| 2026-05-07 12:48 | 18.01315 | 75.22663 | 26265 ft | 413 kts | 295° |
| 2026-05-07 12:48 | 18.02508 | 75.19925 | 25881 ft | 413 kts | 295° |
| 2026-05-07 12:48 | 18.03714 | 75.17159 | 25455 ft | 419 kts | 295° |
| 2026-05-07 12:49 | 18.04931 | 75.14365 | 24850 ft | 422 kts | 295° |
| 2026-05-07 12:49 | 18.06148 | 75.11573 | 24275 ft | 420 kts | 296° |
| 2026-05-07 12:49 | 18.07341 | 75.08831 | 23719 ft | 416 kts | 296° |
| 2026-05-07 12:49 | 18.08554 | 75.06042 | 23100 ft | 412 kts | 296° |
| 2026-05-07 12:50 | 18.09726 | 75.03350 | 22582 ft | 405 kts | 296° |
| 2026-05-07 12:50 | 18.10884 | 75.00687 | 22047 ft | 398 kts | 296° |
| 2026-05-07 12:50 | 18.12031 | 74.98050 | 21487 ft | 393 kts | 296° |
| 2026-05-07 12:50 | 18.13165 | 74.95443 | 20955 ft | 388 kts | 296° |
| 2026-05-07 12:51 | 18.14277 | 74.92887 | 20414 ft | 384 kts | 296° |
| 2026-05-07 12:51 | 18.15382 | 74.90344 | 19856 ft | 380 kts | 296° |
| 2026-05-07 12:51 | 18.16477 | 74.87822 | 19347 ft | 376 kts | 296° |
| 2026-05-07 12:51 | 18.17562 | 74.85325 | 18807 ft | 374 kts | 296° |
| 2026-05-07 12:52 | 18.18625 | 74.82875 | 18241 ft | 373 kts | 296° |
| 2026-05-07 12:52 | 18.19697 | 74.80405 | 17756 ft | 368 kts | 296° |
| 2026-05-07 12:52 | 18.20757 | 74.77960 | 17220 ft | 365 kts | 296° |
| 2026-05-07 12:52 | 18.21806 | 74.75539 | 16704 ft | 362 kts | 296° |
| 2026-05-07 12:53 | 18.22844 | 74.73138 | 16166 ft | 359 kts | 296° |
| 2026-05-07 12:53 | 18.23879 | 74.70747 | 15660 ft | 357 kts | 296° |
| 2026-05-07 12:53 | 18.24995 | 74.68465 | 15116 ft | 356 kts | 301° |
| 2026-05-07 12:53 | 18.26225 | 74.66170 | 14634 ft | 353 kts | 301° |
| 2026-05-07 12:54 | 18.27446 | 74.63931 | 14124 ft | 352 kts | 301° |
| 2026-05-07 12:54 | 18.28651 | 74.61726 | 13607 ft | 351 kts | 301° |
| 2026-05-07 12:54 | 18.29877 | 74.59477 | 13086 ft | 348 kts | 301° |
| 2026-05-07 12:54 | 18.31075 | 74.57274 | 12576 ft | 346 kts | 301° |
| 2026-05-07 12:55 | 18.32267 | 74.55076 | 12086 ft | 343 kts | 301° |
| 2026-05-07 12:55 | 18.33442 | 74.52907 | 11592 ft | 342 kts | 301° |
| 2026-05-07 12:55 | 18.34618 | 74.50733 | 11098 ft | 340 kts | 301° |
| 2026-05-07 12:55 | 18.35768 | 74.48608 | 10603 ft | 339 kts | 301° |
| 2026-05-07 12:56 | 18.36945 | 74.46429 | 10224 ft | 333 kts | 301° |
| 2026-05-07 12:56 | 18.38051 | 74.44378 | 10102 ft | 319 kts | 300° |
| 2026-05-07 12:56 | 18.39121 | 74.42389 | 9953 ft | 307 kts | 301° |
| 2026-05-07 12:56 | 18.40164 | 74.40452 | 9624 ft | 302 kts | 300° |
| 2026-05-07 12:57 | 18.41182 | 74.38559 | 9461 ft | 292 kts | 300° |
| 2026-05-07 12:57 | 18.42193 | 74.36681 | 9119 ft | 295 kts | 300° |
| 2026-05-07 12:57 | 18.43204 | 74.34801 | 8715 ft | 295 kts | 300° |
| 2026-05-07 12:57 | 18.44213 | 74.32925 | 8311 ft | 293 kts | 300° |
| 2026-05-07 12:58 | 18.45200 | 74.31089 | 7914 ft | 284 kts | 300° |
| 2026-05-07 12:58 | 18.46159 | 74.29300 | 7525 ft | 275 kts | 300° |
| 2026-05-07 12:58 | 18.47073 | 74.27595 | 7260 ft | 271 kts | 300° |
| 2026-05-07 12:58 | 18.48010 | 74.25848 | 6890 ft | 277 kts | 301° |
| 2026-05-07 12:59 | 18.48963 | 74.24073 | 6498 ft | 278 kts | 300° |
| 2026-05-07 12:59 | 18.49912 | 74.22303 | 6110 ft | 276 kts | 300° |
| 2026-05-07 12:59 | 18.50859 | 74.20541 | 5717 ft | 274 kts | 300° |
| 2026-05-07 12:59 | 18.51781 | 74.18831 | 5345 ft | 272 kts | 300° |
| 2026-05-07 13:00 | 18.52717 | 74.17098 | 5056 ft | 267 kts | 300° |
| 2026-05-07 13:00 | 18.53611 | 74.15434 | 4947 ft | 255 kts | 299° |
| 2026-05-07 13:00 | 18.54466 | 74.13842 | 4860 ft | 244 kts | 299° |
| 2026-05-07 13:00 | 18.55283 | 74.12319 | 4735 ft | 234 kts | 299° |
| 2026-05-07 13:01 | 18.56075 | 74.10831 | 4401 ft | 231 kts | 299° |
| 2026-05-07 13:01 | 18.56845 | 74.09340 | 4084 ft | 229 kts | 294° |
| 2026-05-07 13:01 | 18.57273 | 74.07774 | 3851 ft | 222 kts | 277° |
| 2026-05-07 13:01 | 18.57371 | 74.06192 | 3794 ft | 210 kts | 272° |
| 2026-05-07 13:02 | 18.57420 | 74.04700 | 3795 ft | 205 kts | 273° |
| 2026-05-07 13:02 | 18.57513 | 74.03185 | 3739 ft | 209 kts | 274° |
| 2026-05-07 13:02 | 18.57607 | 74.01695 | 3465 ft | 195 kts | 274° |
| 2026-05-07 13:02 | 18.57691 | 74.00357 | 3221 ft | 171 kts | 274° |
| 2026-05-07 13:03 | 18.57768 | 73.99147 | 3014 ft | 160 kts | 273° |
| 2026-05-07 13:03 | 18.57839 | 73.98031 | 2833 ft | 144 kts | 273° |
| 2026-05-07 13:03 | 18.57907 | 73.97004 | 2673 ft | 143 kts | 273° |
| 2026-05-07 13:03 | 18.57972 | 73.95955 | 2495 ft | 143 kts | 274° |
| 2026-05-07 13:04 | 18.58057 | 73.94911 | 2306 ft | 144 kts | 274° |
| 2026-05-07 13:04 | 18.58123 | 73.93863 | 2087 ft | 143 kts | 273° |
| 2026-05-07 13:04 | 18.58185 | 73.92824 | 1939 ft | 142 kts | 273° |
| 2026-05-07 13:04 | 18.58234 | 73.91868 | 1923 ft | 107 kts | 274° |
| 2026-05-07 13:05 | 18.58269 | 73.91279 | 1923 ft | 52 kts | 274° |
| 2026-05-07 13:05 | 18.58213 | 73.91059 | 1923 ft | 29 kts | 249° |
| 2026-05-07 13:05 | 18.58169 | 73.90980 | 1923 ft | 10 kts | 238° |
| 2026-05-07 13:05 | 18.58133 | 73.90936 | 1923 ft | 0 kts | 223° |
| 2026-05-07 13:06 | 18.58120 | 73.90928 | 1923 ft | 4 kts | 209° |
| 2026-05-07 13:06 | 18.58081 | 73.90921 | 1923 ft | 7 kts | 173° |
| 2026-05-07 13:06 | 18.58050 | 73.90963 | 1923 ft | 9 kts | 94° |
| 2026-05-07 13:06 | 18.58039 | 73.91038 | 1923 ft | 12 kts | 99° |
| 2026-05-07 13:07 | 18.58030 | 73.91117 | 1923 ft | 5 kts | 101° |
| 2026-05-07 13:07 | 18.58001 | 73.91139 | 1923 ft | 6 kts | 179° |
| 2026-05-07 13:07 | 18.57981 | 73.91135 | 1923 ft | 1 kts | 188° |
| 2026-05-07 13:07 | 18.57971 | 73.91133 | 1925 ft | 0 kts | 188° |